Time;durP1;ratioP1;P1;durP2;ratioP2;P2;SDS_P1;SDS_P2;PMS_P1;PMS_P2;Temp;Humidity;BMP_temperature;BMP_pressure;BME280_temperature;BME280_humidity;BME280_pressure;Samples;Min_cycle;Max_cycle;Signal;HPM_P1;HPM_P2
2023/12/02 00:01:24;;;;;;;;;;;-0.80;99.90;;;-1.94;100.00;96600.47;5013888;28;1597;-87
2023/12/02 00:03:52;;;;;;;;;;;-0.80;99.90;;;-1.87;100.00;96597.84;5011824;28;1770;-86
2023/12/02 00:06:19;;;;;;;;;;;-0.80;99.90;;;-1.86;100.00;96594.44;5012698;28;1844;-86
2023/12/02 00:08:46;;;;;;;;;;;-0.80;99.90;;;-1.90;100.00;96594.47;5000408;28;1563;-86
2023/12/02 00:11:13;;;;;;;;;;;-0.80;99.90;;;-1.85;100.00;96594.41;5015420;28;1423;-86
2023/12/02 00:13:40;;;;;;;;;;;-0.80;99.90;;;-1.93;100.00;96601.28;5016325;28;1609;-87
2023/12/02 00:16:08;;;;;;;;;;;-0.80;99.90;;;-1.83;100.00;96602.03;4997513;28;1413;-86
2023/12/02 00:18:34;;;;;;;;;;;-0.80;99.90;;;-1.95;100.00;96606.38;5018177;28;1934;-87
2023/12/02 00:21:02;;;;;;;;;;;-0.80;99.90;;;-1.85;100.00;96598.66;5015635;28;1387;-86
2023/12/02 00:23:29;;;;;;;;;;;-0.70;99.90;;;-1.96;100.00;96599.63;4997425;28;1117;-87
2023/12/02 00:25:56;;;;;;;;;;;-0.90;99.90;;;-2.05;100.00;96601.38;5015753;28;1436;-86
2023/12/02 00:28:24;;;;;;;;;;;-0.90;99.90;;;-1.98;100.00;96592.88;4992412;28;1464;-87
2023/12/02 00:30:51;;;;;;;;;;;-0.80;99.90;;;-2.02;100.00;96597.13;4995929;28;1238;-86
2023/12/02 00:33:18;;;;;;;;;;;-0.80;99.90;;;-1.99;100.00;96588.63;4998672;28;1375;-87
2023/12/02 00:35:46;;;;;;;;;;;-0.80;99.90;;;-2.12;100.00;96590.44;4984430;28;1249;-87
2023/12/02 00:38:13;;;;;;;;;;;-0.80;99.90;;;-2.03;100.00;96589.50;5017516;28;1386;-86
2023/12/02 00:40:41;;;;;;;;;;;-0.90;99.90;;;-2.05;100.00;96584.44;5000451;28;1985;-87
2023/12/02 00:43:08;;;;;;;;;;;-0.90;99.90;;;-2.02;100.00;96586.94;5013516;28;1276;-87
2023/12/02 00:45:34;;;;;;;;;;;-0.90;99.90;;;-2.07;100.00;96586.16;5014985;28;1491;-86
2023/12/02 00:48:03;;;;;;;;;;;-0.90;99.90;;;-2.07;100.00;96573.44;5016479;28;1546;-87
2023/12/02 00:50:30;;;;;;;;;;;-1.00;99.90;;;-2.04;100.00;96586.13;5013578;28;1678;-87
2023/12/02 00:52:57;;;;;;;;;;;-1.00;99.90;;;-2.13;100.00;96586.19;4980286;28;1646;-86
2023/12/02 00:55:24;;;;;;;;;;;-1.00;99.90;;;-2.14;100.00;96582.00;5013681;28;1390;-86
2023/12/02 00:57:51;;;;;;;;;;;-1.00;99.90;;;-2.08;100.00;96589.53;4999115;28;1456;-87
2023/12/02 01:00:18;;;;;;;;;;;-0.90;99.90;;;-2.05;100.00;96591.22;4997573;28;1895;-87
2023/12/02 01:02:45;;;;;;;;;;;-0.90;99.90;;;-2.06;100.00;96592.09;5019150;28;1724;-87
2023/12/02 01:05:13;;;;;;;;;;;-0.90;99.90;;;-2.18;100.00;96588.78;5016282;28;1356;-86
2023/12/02 01:07:40;;;;;;;;;;;-1.00;99.90;;;-2.20;100.00;96600.66;5000981;28;1486;-87
2023/12/02 01:10:12;;;;;;;;;;;-1.00;99.90;;;-2.24;100.00;96604.06;4999530;28;1404;-87
2023/12/02 01:12:39;;;;;;;;;;;-1.00;99.90;;;-2.23;100.00;96605.78;5013856;28;1334;-87
2023/12/02 01:15:08;;;;;;;;;;;-0.90;99.90;;;-2.25;100.00;96609.19;5017071;28;1461;-87
2023/12/02 01:17:35;;;;;;;;;;;-0.90;99.90;;;-2.29;100.00;96605.81;5015692;28;1493;-87
2023/12/02 01:20:03;;;;;;;;;;;-1.00;99.90;;;-2.20;100.00;96617.63;4999968;28;1879;-86
2023/12/02 01:22:30;;;;;;;;;;;-1.00;99.90;;;-2.26;100.00;96618.50;5016384;28;1627;-86
2023/12/02 01:24:58;;;;;;;;;;;-1.20;99.90;;;-2.31;100.00;96631.25;5003095;28;1431;-85
2023/12/02 01:27:25;;;;;;;;;;;-1.10;99.90;;;-2.37;100.00;96625.38;5015712;28;1564;-84
2023/12/02 01:29:52;;;;;;;;;;;-1.20;99.90;;;-2.27;100.00;96624.44;4999780;28;1446;-86
2023/12/02 01:32:20;;;;;;;;;;;-1.20;99.90;;;-2.31;100.00;96626.16;5016577;28;1404;-86
2023/12/02 01:34:47;;;;;;;;;;;-1.20;99.90;;;-2.44;100.00;96631.34;5018593;28;1457;-86
2023/12/02 01:37:14;;;;;;;;;;;-1.20;99.90;;;-2.33;100.00;96632.09;5018028;28;1404;-85
2023/12/02 01:39:41;;;;;;;;;;;-1.30;99.90;;;-2.35;100.00;96628.72;5004447;28;1891;-85
2023/12/02 01:42:08;;;;;;;;;;;-1.20;99.90;;;-2.38;100.00;96633.84;5022188;28;1613;-85
2023/12/02 01:44:36;;;;;;;;;;;-1.20;99.90;;;-2.42;100.00;96634.72;5021689;28;1454;-86
2023/12/02 01:47:05;;;;;;;;;;;;;;;-2.37;100.00;96638.94;5020512;28;1744;-85
2023/12/02 01:49:31;;;;;;;;;;;-1.20;99.90;;;-2.42;100.00;96645.72;5016550;28;1579;-85
2023/12/02 01:52:00;;;;;;;;;;;-1.30;99.90;;;-2.46;100.00;96651.69;4986516;28;1708;-85
2023/12/02 01:54:28;;;;;;;;;;;-1.40;99.90;;;-2.53;100.00;96657.66;5002842;28;1428;-86
2023/12/02 01:56:55;;;;;;;;;;;-1.30;99.90;;;-2.46;100.00;96654.22;5002808;28;1595;-84
2023/12/02 01:59:24;;;;;;;;;;;-1.20;99.90;;;-2.57;100.00;96656.00;5003405;28;2012;-86
2023/12/02 02:01:51;;;;;;;;;;;-1.40;99.90;;;-2.52;100.00;96646.63;5018673;28;1833;-85
2023/12/02 02:04:18;;;;;;;;;;;-1.30;99.90;;;-2.56;100.00;96655.13;5020075;28;1718;-85
2023/12/02 02:06:45;;;;;;;;;;;-1.40;99.90;;;-2.67;100.00;96655.19;5001393;28;1662;-86
2023/12/02 02:09:12;;;;;;;;;;;-1.30;99.90;;;-2.71;100.00;96652.66;5015912;28;1731;-86
2023/12/02 02:11:40;;;;;;;;;;;-1.40;99.90;;;-2.68;100.00;96653.50;5000846;28;1860;-85
2023/12/02 02:14:08;;;;;;;;;;;-1.40;99.90;;;-2.66;100.00;96650.97;5019328;28;1341;-85
2023/12/02 02:16:37;;;;;;;;;;;-1.40;99.90;;;-2.73;100.00;96652.69;5019820;28;1466;-84
2023/12/02 02:19:06;;;;;;;;;;;-1.50;99.90;;;-2.65;100.00;96650.09;5018950;28;2293;-85
2023/12/02 02:21:33;;;;;;;;;;;-1.40;99.90;;;-2.65;100.00;96655.19;5019139;28;1672;-85
2023/12/02 02:24:00;;;;;;;;;;;-1.40;99.90;;;-2.66;100.00;96646.72;5005159;28;1554;-86
2023/12/02 02:26:28;;;;;;;;;;;-1.40;99.90;;;-2.63;100.00;96658.56;5017637;28;1702;-85
2023/12/02 02:28:55;;;;;;;;;;;-1.40;99.90;;;-2.65;100.00;96657.72;5019134;28;1442;-85
2023/12/02 02:31:21;;;;;;;;;;;-1.50;99.90;;;-2.59;100.00;96661.06;5004871;28;1638;-86
2023/12/02 02:33:48;;;;;;;;;;;-1.40;99.90;;;-2.64;100.00;96654.34;5020662;28;1401;-85
2023/12/02 02:36:16;;;;;;;;;;;-1.40;99.90;;;-2.69;100.00;96659.44;5020513;28;1498;-84
2023/12/02 02:38:43;;;;;;;;;;;-1.50;99.90;;;-2.65;100.00;96658.56;5019945;28;1455;-86
2023/12/02 02:41:13;;;;;;;;;;;-1.50;99.90;;;-2.74;100.00;96664.56;5023201;28;1890;-85
2023/12/02 02:43:40;;;;;;;;;;;-1.40;99.90;;;-2.64;100.00;96661.97;5017227;28;1365;-86
2023/12/02 02:46:08;;;;;;;;;;;-1.40;99.90;;;-2.75;100.00;96662.00;5021242;28;1785;-85
2023/12/02 02:48:35;;;;;;;;;;;-1.50;99.90;;;-2.73;100.00;96662.84;5021085;28;1772;-85
2023/12/02 02:51:04;;;;;;;;;;;-1.50;99.90;;;-2.77;100.00;96668.78;5020676;28;1360;-84
2023/12/02 02:53:32;;;;;;;;;;;-1.50;99.90;;;-2.79;100.00;96671.31;5001339;28;1301;-86
2023/12/02 02:56:02;;;;;;;;;;;-1.50;99.90;;;-2.77;100.00;96673.88;5004645;28;1378;-85
2023/12/02 02:58:29;;;;;;;;;;;-1.60;99.90;;;-2.79;100.00;96678.94;5005330;28;1538;-85
2023/12/02 03:00:57;;;;;;;;;;;-1.60;99.90;;;-2.79;100.00;96665.41;5020384;28;1883;-86
2023/12/02 03:03:25;;;;;;;;;;;-1.60;99.90;;;-2.78;100.00;96670.50;5003105;28;1228;-85
2023/12/02 03:05:52;;;;;;;;;;;-1.60;99.90;;;-2.85;100.00;96670.50;5003495;28;1485;-84
2023/12/02 03:08:19;;;;;;;;;;;-1.50;99.90;;;-2.75;100.00;96667.09;5021476;28;1416;-85
2023/12/02 03:10:49;;;;;;;;;;;-1.60;99.90;;;-2.88;100.00;96673.06;5019901;28;1330;-84
2023/12/02 03:13:17;;;;;;;;;;;-1.60;99.90;;;-2.86;100.00;96668.84;5022875;28;1186;-85
2023/12/02 03:15:43;;;;;;;;;;;-1.60;99.90;;;-2.81;100.00;96682.34;5022431;28;1325;-85
2023/12/02 03:18:11;;;;;;;;;;;-1.60;99.90;;;-2.83;100.00;96684.03;5023556;28;1379;-86
2023/12/02 03:20:39;;;;;;;;;;;-1.60;99.90;;;-2.79;100.00;96685.72;5018782;28;1964;-85
2023/12/02 03:23:06;;;;;;;;;;;-1.60;99.90;;;-2.80;100.00;96673.91;5006219;28;1720;-85
2023/12/02 03:25:33;;;;;;;;;;;-1.70;99.90;;;-2.89;100.00;96673.94;5004362;28;1329;-85
2023/12/02 03:28:00;;;;;;;;;;;-1.70;99.90;;;-2.87;100.00;96670.53;5019414;28;1415;-85
2023/12/02 03:30:27;;;;;;;;;;;-1.70;99.90;;;-2.83;100.00;96674.75;5021110;28;1484;-85
2023/12/02 03:32:54;;;;;;;;;;;-1.70;99.90;;;-2.87;100.00;96677.28;5022148;28;1522;-85
2023/12/02 03:35:21;;;;;;;;;;;-1.60;99.90;;;-2.85;100.00;96678.13;5018180;28;1346;-85
2023/12/02 03:37:48;;;;;;;;;;;-1.60;99.90;;;-2.83;100.00;96686.59;5003810;28;1377;-84
2023/12/02 03:40:16;;;;;;;;;;;-1.60;99.90;;;-2.85;100.00;96685.75;5002079;28;1919;-85
2023/12/02 03:42:45;;;;;;;;;;;-1.70;99.90;;;-2.93;100.00;96695.94;5004061;28;1177;-85
2023/12/02 03:45:12;;;;;;;;;;;-1.60;99.90;;;-2.88;100.00;96685.78;5018700;28;1399;-86
2023/12/02 03:47:42;;;;;;;;;;;-1.70;99.90;;;-2.90;100.00;96685.75;5021313;28;1529;-85
2023/12/02 03:50:09;;;;;;;;;;;-1.80;99.90;;;-2.93;100.00;96692.56;5006792;28;1388;-85
2023/12/02 03:52:36;;;;;;;;;;;-1.80;99.90;;;-2.99;100.00;96694.28;5018377;28;1546;-86
2023/12/02 03:55:04;;;;;;;;;;;-1.80;99.90;;;-2.99;100.00;96689.22;5015464;28;1490;-85
2023/12/02 03:57:31;;;;;;;;;;;-1.80;99.90;;;-2.99;100.00;96695.97;5022945;28;1411;-85
2023/12/02 04:00:00;;;;;;;;;;;-1.80;99.90;;;-3.03;100.00;96695.13;5016906;28;1964;-85
2023/12/02 04:02:28;;;;;;;;;;;-1.80;99.90;;;-3.07;100.00;96698.53;5015282;28;1609;-85
2023/12/02 04:04:55;;;;;;;;;;;-1.80;99.90;;;-2.97;100.00;96712.88;5018466;28;1357;-85
2023/12/02 04:07:21;;;;;;;;;;;-1.80;99.90;;;-3.07;100.00;96716.31;5023574;28;1380;-85
2023/12/02 04:09:50;;;;;;;;;;;-1.80;99.90;;;-3.06;100.00;96717.97;5000395;28;1367;-85
2023/12/02 04:12:17;;;;;;;;;;;-1.80;99.90;;;-3.10;100.00;96715.44;5018659;28;1269;-84
2023/12/02 04:14:44;;;;;;;;;;;-2.00;99.90;;;-3.12;100.00;96714.59;5018777;28;1213;-85
2023/12/02 04:17:11;;;;;;;;;;;-1.90;99.90;;;-3.13;100.00;96720.56;5003354;28;1420;-84
2023/12/02 04:19:38;;;;;;;;;;;-1.90;99.90;;;-3.17;100.00;96719.69;5019347;28;1906;-85
2023/12/02 04:22:06;;;;;;;;;;;-1.90;99.90;;;-3.12;100.00;96732.38;5017305;28;1555;-86
2023/12/02 04:24:34;;;;;;;;;;;-1.90;99.90;;;-3.20;100.00;96725.63;5017441;28;1412;-85
2023/12/02 04:27:01;;;;;;;;;;;-1.90;99.90;;;-3.13;100.00;96731.53;5017019;28;1309;-86
2023/12/02 04:29:28;;;;;;;;;;;-1.90;99.90;;;-3.23;100.00;96727.34;5017442;28;1895;-85
2023/12/02 04:31:57;;;;;;;;;;;-1.90;99.90;;;-3.25;100.00;96724.81;5016774;28;1430;-86
2023/12/02 04:34:24;;;;;;;;;;;-2.00;99.90;;;-3.18;100.00;96726.47;5001493;28;1304;-85
2023/12/02 04:36:51;;;;;;;;;;;-2.00;99.90;;;-3.30;100.00;96734.13;5016514;28;1335;-84
2023/12/02 04:39:19;;;;;;;;;;;-2.00;99.90;;;-3.37;100.00;96745.13;5017752;28;1246;-85
2023/12/02 04:41:46;;;;;;;;;;;-2.00;99.90;;;-3.37;100.00;96751.06;5016128;28;1887;-85
2023/12/02 04:44:13;;;;;;;;;;;-2.00;99.90;;;-3.22;100.00;96756.94;5016450;28;1245;-85
2023/12/02 04:46:43;;;;;;;;;;;-2.00;99.90;;;-3.34;100.00;96762.88;5016227;28;1367;-85
2023/12/02 04:49:11;;;;;;;;;;;-2.10;99.90;;;-3.23;100.00;96767.94;5016442;28;1726;-84
2023/12/02 04:51:38;;;;;;;;;;;-2.00;99.90;;;-3.36;100.00;96770.50;5018597;28;1339;-84
2023/12/02 04:54:05;;;;;;;;;;;-2.10;99.90;;;-3.38;100.00;96774.72;5001913;28;1269;-84
2023/12/02 04:56:32;;;;;;;;;;;-2.10;99.90;;;-3.43;100.00;96780.66;5016938;28;1319;-85
2023/12/02 04:59:00;;;;;;;;;;;-2.20;99.90;;;-3.29;100.00;96780.63;5019417;28;1413;-85
2023/12/02 05:01:29;;;;;;;;;;;-2.10;99.90;;;-3.32;100.00;96783.19;5016355;28;1882;-86
2023/12/02 05:03:58;;;;;;;;;;;-2.10;99.90;;;-3.36;100.00;96789.94;5017853;28;1444;-85
2023/12/02 05:06:26;;;;;;;;;;;-2.10;99.90;;;-3.28;100.00;96795.03;5017469;28;1347;-85
2023/12/02 05:08:53;;;;;;;;;;;-2.10;99.90;;;-3.23;100.00;96804.31;5015517;28;1404;-85
2023/12/02 05:11:21;;;;;;;;;;;-2.10;99.90;;;-3.35;100.00;96796.72;4997549;28;1436;-86
2023/12/02 05:13:50;;;;;;;;;;;-2.20;99.90;;;-3.38;100.00;96802.63;5013583;28;1439;-84
2023/12/02 05:16:18;;;;;;;;;;;-2.10;99.90;;;-3.36;100.00;96802.63;5016380;28;1517;-86
2023/12/02 05:18:46;;;;;;;;;;;-2.10;99.90;;;-3.43;100.00;96822.09;5003890;28;1370;-85
2023/12/02 05:21:13;;;;;;;;;;;-2.20;99.90;;;-3.39;100.00;96828.84;5014943;28;2001;-84
2023/12/02 05:23:41;;;;;;;;;;;-2.20;99.90;;;-3.41;100.00;96830.56;4967064;28;1423654;-84
2023/12/02 05:26:12;;;;;;;;;;;-2.20;99.90;;;-3.38;100.00;96835.63;5000906;28;1282;-86
2023/12/02 05:28:42;;;;;;;;;;;-2.20;99.90;;;-3.42;100.00;96844.09;5019600;28;1428;-85
2023/12/02 05:31:12;;;;;;;;;;;-2.10;99.90;;;-3.48;100.00;96846.63;5000460;28;1385;-85
2023/12/02 05:33:40;;;;;;;;;;;-2.10;99.90;;;-3.50;100.00;96853.38;5003095;28;1254;-84
2023/12/02 05:36:09;;;;;;;;;;;-2.10;99.90;;;-3.59;100.00;96839.00;5013701;28;1237;-85
2023/12/02 05:38:37;;;;;;;;;;;-2.20;99.90;;;-3.51;100.00;96858.44;5000755;28;1282;-85
2023/12/02 05:41:06;;;;;;;;;;;;;;;-3.54;100.00;96866.91;5017249;28;1918;-85
2023/12/02 05:43:34;;;;;;;;;;;-2.20;99.90;;;-3.62;100.00;96873.66;5015891;28;1390;-85
2023/12/02 05:46:01;;;;;;;;;;;-2.30;99.90;;;-3.51;100.00;96871.13;5015906;28;1927;-84
2023/12/02 05:48:28;;;;;;;;;;;-2.30;99.90;;;-3.54;100.00;96874.50;5020420;28;1400;-85
2023/12/02 05:50:56;;;;;;;;;;;-2.30;99.90;;;-3.51;100.00;96884.69;5016442;28;1451;-85
2023/12/02 05:53:24;;;;;;;;;;;-2.30;99.90;;;-3.58;100.00;96893.09;5018243;28;1181;-84
2023/12/02 05:55:51;;;;;;;;;;;-2.30;99.90;;;-3.59;100.00;96894.78;5004741;28;1210;-85
2023/12/02 05:58:18;;;;;;;;;;;-2.30;99.90;;;-3.49;100.00;96895.69;5017385;28;1499;-84
2023/12/02 06:00:45;;;;;;;;;;;-2.30;99.90;;;-3.45;100.00;96896.50;5018837;28;1883;-84
2023/12/02 06:03:14;;;;;;;;;;;-2.30;99.90;;;-3.49;100.00;96892.28;5020290;28;1570;-84
2023/12/02 06:05:41;;;;;;;;;;;-2.30;99.90;;;-3.53;100.00;96893.97;5020157;28;1436;-84
2023/12/02 06:08:10;;;;;;;;;;;-2.30;99.90;;;-3.41;100.00;96898.22;5017964;28;1312;-85
2023/12/02 06:10:37;;;;;;;;;;;-2.30;99.90;;;-3.48;100.00;96891.44;5020824;28;1369;-85
2023/12/02 06:13:08;;;;;;;;;;;-2.20;99.90;;;-3.46;100.00;96902.44;5006074;28;1467;-85
2023/12/02 06:15:37;;;;;;;;;;;-2.20;99.90;;;-3.59;100.00;96899.03;5019308;28;1416;-86
2023/12/02 06:18:04;;;;;;;;;;;-2.30;99.90;;;-3.54;100.00;96902.41;5017528;28;1419;-84
2023/12/02 06:20:31;;;;;;;;;;;-2.40;99.90;;;-3.45;100.00;96902.44;5000873;28;1892;-85
2023/12/02 06:22:58;;;;;;;;;;;-2.30;99.90;;;-3.51;100.00;96907.50;5017681;28;1265;-86
2023/12/02 06:25:25;;;;;;;;;;;-2.20;99.90;;;-3.48;100.00;96911.75;5022627;28;1266;-86
2023/12/02 06:27:51;;;;;;;;;;;-2.20;99.90;;;-3.59;100.00;96916.78;5021405;28;1367;-85
2023/12/02 06:30:20;;;;;;;;;;;-2.20;99.90;;;-3.52;100.00;96915.94;5021271;28;1387;-84
2023/12/02 06:32:48;;;;;;;;;;;-2.30;99.90;;;-3.58;100.00;96921.88;5022242;28;1224;-85
2023/12/02 06:35:15;;;;;;;;;;;-2.30;99.90;;;-3.50;100.00;96921.88;5021945;28;1458;-85
2023/12/02 06:37:43;;;;;;;;;;;-2.30;99.90;;;-3.43;100.00;96931.19;5024111;28;1292;-85
2023/12/02 06:40:13;;;;;;;;;;;-2.30;99.90;;;-3.55;100.00;96930.34;5024819;28;1961;-85
2023/12/02 06:42:42;;;;;;;;;;;-2.40;99.90;;;-3.60;100.00;96927.78;5020826;28;1284;-85
2023/12/02 06:45:11;;;;;;;;;;;-2.30;99.90;;;-3.61;100.00;96932.00;5005078;28;1426;-85
2023/12/02 06:47:38;;;;;;;;;;;-2.30;99.90;;;-3.58;100.00;96934.56;5019121;28;1707;-85
2023/12/02 06:50:05;;;;;;;;;;;-2.40;99.90;;;-3.66;100.00;96930.28;5006093;28;1301;-84
2023/12/02 06:52:32;;;;;;;;;;;-2.40;99.90;;;-3.72;100.00;96942.94;5019790;28;1480;-85
2023/12/02 06:54:59;;;;;;;;;;;-2.50;99.90;;;-3.66;100.00;96945.50;5021259;28;1445;-85
2023/12/02 06:57:29;;;;;;;;;;;-2.40;99.90;;;-3.60;100.00;96948.06;5024486;28;1357;-85
2023/12/02 06:59:57;;;;;;;;;;;-2.40;99.90;;;-3.76;100.00;96944.66;5019096;28;1308;-86
2023/12/02 07:02:26;;;;;;;;;;;-2.50;99.90;;;-3.68;100.00;96945.50;5020844;28;1883;-84
2023/12/02 07:04:53;;;;;;;;;;;-2.60;99.90;;;-3.73;100.00;96951.41;5021169;28;1361;-86
2023/12/02 07:07:20;;;;;;;;;;;-2.50;99.90;;;-3.72;100.00;96956.47;5021959;28;1452;-85
2023/12/02 07:09:47;;;;;;;;;;;-2.40;99.90;;;-3.64;100.00;96962.44;5005191;28;1357;-85
2023/12/02 07:12:14;;;;;;;;;;;-2.40;99.90;;;-3.57;100.00;96968.38;4986863;28;1314;-84
2023/12/02 07:14:41;;;;;;;;;;;-2.40;99.90;;;-3.59;100.00;96978.50;5021699;28;1209;-86
2023/12/02 07:17:08;;;;;;;;;;;-2.40;99.90;;;-3.61;100.00;96986.94;5023806;28;1455;-85
2023/12/02 07:19:35;;;;;;;;;;;-2.40;99.90;;;-3.51;100.00;96980.22;5018370;28;1571;-85
2023/12/02 07:22:03;;;;;;;;;;;-2.40;99.90;;;-3.60;100.00;96988.66;4987560;28;1984;-84
2023/12/02 07:24:30;;;;;;;;;;;-2.40;99.90;;;-3.61;100.00;96985.25;5023289;28;1252;-84
2023/12/02 07:26:58;;;;;;;;;;;-2.40;99.90;;;-3.69;100.00;96998.78;5009008;28;1406;-85
2023/12/02 07:29:26;;;;;;;;;;;-2.40;99.90;;;-3.58;100.00;97005.59;5032616;28;1365;-85
2023/12/02 07:31:55;;;;;;;;;;;-2.40;99.90;;;-3.63;100.00;97008.91;5030930;28;1289;-85
2023/12/02 07:34:22;;;;;;;;;;;-2.40;99.90;;;-3.75;100.00;97014.78;5033193;28;1182;-86
2023/12/02 07:36:50;;;;;;;;;;;-2.50;99.90;;;-3.63;100.00;97019.91;5032825;28;1502;-85
2023/12/02 07:39:17;;;;;;;;;;;-2.50;99.90;;;-3.73;100.00;97023.25;5031867;28;1331;-85
2023/12/02 07:41:45;;;;;;;;;;;-2.50;99.90;;;-3.70;100.00;97023.25;5028298;28;1960;-85
2023/12/02 07:44:12;;;;;;;;;;;-2.50;99.90;;;-3.63;100.00;97037.66;5024390;28;1534;-85
2023/12/02 07:46:39;;;;;;;;;;;-2.40;99.90;;;-3.72;100.00;97037.63;5026679;28;1351;-85
2023/12/02 07:49:06;;;;;;;;;;;-2.40;99.90;;;-3.73;100.00;97037.63;5003878;28;1402;-86
2023/12/02 07:51:33;;;;;;;;;;;-2.40;99.90;;;-3.66;100.00;97040.19;5019460;28;1324;-86
2023/12/02 07:54:00;;;;;;;;;;;-2.30;99.90;;;-3.69;100.00;97042.72;5022829;28;1443;-85
2023/12/02 07:56:27;;;;;;;;;;;-2.30;99.90;;;-3.56;100.00;97041.06;5016748;28;1562;-85
2023/12/02 07:58:55;;;;;;;;;;;-2.40;99.90;;;-3.67;100.00;97045.25;5014972;28;1485;-86
2023/12/02 08:01:24;;;;;;;;;;;-2.40;99.90;;;-3.73;100.00;97045.25;5019464;28;1910;-85
2023/12/02 08:03:51;;;;;;;;;;;-2.50;99.90;;;-3.67;100.00;97046.13;5020097;28;1272;-85
2023/12/02 08:06:19;;;;;;;;;;;-2.50;99.90;;;-3.64;100.00;97052.91;5022875;28;1455;-86
2023/12/02 08:08:47;;;;;;;;;;;-2.40;99.90;;;-3.63;100.00;97049.50;5022560;28;1122;-85
2023/12/02 08:11:15;;;;;;;;;;;-2.40;99.90;;;-3.72;100.00;97055.38;5021521;28;1384;-85
2023/12/02 08:13:44;;;;;;;;;;;-2.40;99.90;;;-3.76;100.00;97052.81;5021037;28;1417;-85
2023/12/02 08:16:11;;;;;;;;;;;-2.40;99.90;;;-3.76;100.00;97058.75;5024691;28;1413;-85
2023/12/02 08:18:39;;;;;;;;;;;-2.40;99.90;;;-3.73;100.00;97056.22;5022329;28;1669;-84
2023/12/02 08:21:07;;;;;;;;;;;-2.40;99.90;;;-3.79;100.00;97058.72;5022263;28;1908;-84
2023/12/02 08:23:34;;;;;;;;;;;-2.40;99.90;;;-3.59;100.00;97058.84;5022737;28;1237;-85
2023/12/02 08:26:02;;;;;;;;;;;-2.50;99.90;;;-3.61;100.00;97065.59;5025835;28;1288;-85
2023/12/02 08:28:29;;;;;;;;;;;-2.50;99.90;;;-3.76;100.00;97062.97;5024641;28;1419;-85
2023/12/02 08:30:56;;;;;;;;;;;-2.50;99.90;;;-3.74;100.00;97064.69;5022282;28;1400;-85
2023/12/02 08:33:23;;;;;;;;;;;-2.50;99.90;;;-3.72;100.00;97072.28;5024001;28;1233;-85
2023/12/02 08:35:50;;;;;;;;;;;-2.50;99.90;;;-3.63;100.00;97070.63;5018987;28;1175;-85
2023/12/02 08:38:17;;;;;;;;;;;-2.50;99.90;;;-3.76;100.00;97071.44;5021976;28;1689;-85
2023/12/02 08:40:44;;;;;;;;;;;-2.50;99.90;;;-3.76;100.00;97073.09;5025416;28;1890;-84
2023/12/02 08:43:13;;;;;;;;;;;-2.30;99.90;;;-3.78;100.00;97081.56;5025332;28;1295;-85
2023/12/02 08:45:42;;;;;;;;;;;-2.40;99.90;;;-3.77;100.00;97084.94;5022462;28;1411;-85
2023/12/02 08:48:09;;;;;;;;;;;-2.50;99.90;;;-3.69;100.00;97090.91;5009791;28;1725;-84
2023/12/02 08:50:37;;;;;;;;;;;-2.60;99.90;;;-3.69;100.00;97092.63;5022480;28;1439;-84
2023/12/02 08:53:04;;;;;;;;;;;-2.60;99.90;;;-3.72;100.00;97087.50;5002719;28;1388;-83
2023/12/02 08:55:33;;;;;;;;;;;-2.50;99.90;;;-3.63;100.00;97095.16;4996565;28;1737;-84
2023/12/02 08:58:00;;;;;;;;;;;-2.50;99.90;;;-3.72;100.00;97092.56;5000022;28;1412;-86
2023/12/02 09:00:28;;;;;;;;;;;-2.40;99.90;;;-3.70;100.00;97098.50;5009559;28;1403;-84
2023/12/02 09:02:55;;;;;;;;;;;-2.50;99.90;;;-3.65;100.00;97096.84;5012430;28;1879;-83
2023/12/02 09:05:23;;;;;;;;;;;-2.50;99.90;;;-3.73;100.00;97094.28;4995758;28;1391;-85
2023/12/02 09:07:50;;;;;;;;;;;-2.40;99.90;;;-3.68;100.00;97097.69;4993397;28;1395;-85
2023/12/02 09:10:18;;;;;;;;;;;-2.40;99.90;;;-3.79;100.00;97104.38;4979786;28;1317;-85
2023/12/02 09:12:45;;;;;;;;;;;-2.40;99.90;;;-3.67;100.00;97096.84;5011319;28;1288;-86
2023/12/02 09:15:15;;;;;;;;;;;-2.40;99.90;;;-3.61;100.00;97107.00;5012822;28;1389;-87
2023/12/02 09:17:48;;;;;;;;;;;-2.40;99.90;;;-3.57;100.00;97112.97;5011222;28;1403;-86
2023/12/02 09:20:33;;;;;;;;;;;-2.30;99.90;;;-3.32;100.00;97113.09;5011481;28;1353;-86
2023/12/02 09:23:01;;;;;;;;;;;-2.30;99.90;;;-3.41;100.00;97108.81;5015126;28;1906;-85
2023/12/02 09:25:35;;;;;;;;;;;-2.20;99.90;;;-3.33;100.00;97116.47;4992345;28;1501;-87
2023/12/02 09:28:05;;;;;;;;;;;-2.10;99.90;;;-3.53;100.00;97127.38;4999665;28;1265;-87
2023/12/02 09:30:33;;;;;;;;;;;-2.20;99.90;;;-3.59;100.00;97134.94;5012077;28;1340;-86
2023/12/02 09:33:00;;;;;;;;;;;-2.20;99.90;;;-3.49;100.00;97141.78;4994039;28;1506;-85
2023/12/02 09:35:28;;;;;;;;;;;-2.30;99.90;;;-3.61;100.00;97142.53;4980046;28;1458;-85
2023/12/02 09:37:56;;;;;;;;;;;-2.30;99.90;;;-3.68;100.00;97147.56;5010051;28;1375;-85
2023/12/02 09:40:37;;;;;;;;;;;-2.30;99.90;;;-3.52;100.00;97149.34;4995755;28;1256;-85
2023/12/02 09:43:24;;;;;;;;;;;-2.40;99.90;;;-3.36;100.00;97158.75;4996061;28;1882;-86
2023/12/02 09:46:21;;;;;;;;;;;-2.30;99.90;;;-3.51;100.00;97162.88;5014759;28;1538;-86
2023/12/02 09:49:10;;;;;;;;;;;-2.20;99.90;;;-3.59;100.00;97162.84;4993730;28;1433;-85
2023/12/02 09:52:01;;;;;;;;;;;-2.20;99.90;;;-3.60;100.00;97163.69;5014059;28;1053;-86
2023/12/02 09:54:53;;;;;;;;;;;-2.30;99.90;;;-3.55;100.00;97167.09;5013501;28;1517;-86
2023/12/02 09:57:37;;;;;;;;;;;-2.20;99.90;;;-3.64;100.00;97172.97;5000067;28;1281;-85
2023/12/02 10:00:15;;;;;;;;;;;-2.30;99.90;;;-3.52;100.00;97177.25;5013514;28;1456;-86
2023/12/02 10:02:58;;;;;;;;;;;-2.30;99.90;;;-3.42;100.00;97183.22;5000175;28;1985;-85
2023/12/02 10:05:26;;;;;;;;;;;-2.30;99.90;;;-3.61;100.00;97178.03;4984308;28;1337;-84
2023/12/02 10:08:06;;;;;;;;;;;-2.30;99.90;;;-3.66;100.00;97178.84;4998285;28;1592;-85
2023/12/02 10:10:43;;;;;;;;;;;-2.30;99.90;;;-3.54;100.00;97178.09;5016170;28;1393;-85
2023/12/02 10:13:18;;;;;;;;;;;-2.30;99.90;;;-3.54;100.00;97178.09;5017534;28;1632;-86
2023/12/02 10:15:48;;;;;;;;;;;-2.40;99.90;;;-3.63;100.00;97178.88;5016607;28;1399;-85
2023/12/02 10:18:17;;;;;;;;;;;-2.30;99.90;;;-3.55;100.00;97187.41;5014329;28;1313;-86
2023/12/02 10:20:45;;;;;;;;;;;-2.30;99.90;;;-3.58;100.00;97185.69;5002152;28;1331;-86
2023/12/02 10:23:24;;;;;;;;;;;-2.30;99.90;;;-3.56;100.00;97195.81;5001193;28;1990;-85
2023/12/02 10:26:15;;;;;;;;;;;-2.30;99.90;;;-3.51;100.00;97186.59;5015725;28;1386;-86
2023/12/02 10:28:47;;;;;;;;;;;-2.30;99.90;;;-3.50;100.00;97184.88;5014264;28;1544;-86
2023/12/02 10:31:25;;;;;;;;;;;-2.30;99.90;;;-3.24;100.00;97193.50;5016654;28;1565;-86
2023/12/02 10:34:15;;;;;;;;;;;-2.20;99.90;;;-3.31;100.00;97189.22;4999543;28;1556;-86
2023/12/02 10:36:46;;;;;;;;;;;-2.10;99.90;;;-3.45;100.00;97183.22;5016374;28;1436;-85
2023/12/02 10:39:43;;;;;;;;;;;-2.10;99.90;;;-3.12;100.00;97184.25;5000768;28;1618;-85
2023/12/02 10:42:17;;;;;;;;;;;-2.10;99.90;;;-3.29;100.00;97190.09;4999834;28;2039;-86
2023/12/02 10:44:55;;;;;;;;;;;-2.10;99.90;;;-3.03;100.00;97197.84;5017703;28;1138;-85
2023/12/02 10:47:22;;;;;;;;;;;-2.00;99.90;;;-3.03;100.00;97192.78;5007098;28;1802;-86
2023/12/02 10:49:49;;;;;;;;;;;-1.90;99.90;;;-2.95;100.00;97190.25;5021591;28;1543;-87
2023/12/02 10:52:18;;;;;;;;;;;-2.00;99.90;;;-2.75;100.00;97197.97;5020042;28;1760;-86
2023/12/02 10:54:51;;;;;;;;;;;-1.80;99.90;;;-3.13;100.00;97190.16;5016560;28;1048;-86
2023/12/02 10:57:19;;;;;;;;;;;-1.80;99.90;;;-3.20;100.00;97190.13;5014188;28;1273;-86
2023/12/02 10:59:55;;;;;;;;;;;-1.80;99.90;;;-3.21;100.00;97192.69;4997590;28;1397;-86
2023/12/02 11:02:28;;;;;;;;;;;-2.00;99.90;;;-3.18;100.00;97200.31;5015360;28;1902;-86
2023/12/02 11:05:21;;;;;;;;;;;-2.00;99.90;;;-3.32;100.00;97190.06;5015544;28;1099;-85
2023/12/02 11:07:52;;;;;;;;;;;-2.10;99.90;;;-3.33;100.00;97192.59;5002956;28;1331;-86
2023/12/02 11:10:31;;;;;;;;;;;-2.10;99.90;;;-3.23;100.00;97199.44;5019002;28;1766;-86
2023/12/02 11:13:12;;;;;;;;;;;-2.10;99.90;;;-3.39;100.00;97198.50;4995449;28;1346;-85
2023/12/02 11:16:29;;;;;;;;;;;-2.10;99.90;;;-3.25;100.00;97212.09;5019197;28;1677;-85
2023/12/02 11:19:02;;;;;;;;;;;-2.20;99.90;;;-3.39;100.00;97212.03;4986803;28;1747;-85
2023/12/02 11:21:35;;;;;;;;;;;-2.10;99.90;;;-3.39;100.00;97216.25;5016328;28;1902;-86
2023/12/02 11:24:27;;;;;;;;;;;-2.20;99.90;;;-3.34;100.00;97223.91;5017722;28;1532;-86
2023/12/02 11:27:10;;;;;;;;;;;-2.20;99.90;;;-3.32;100.00;97225.59;5014568;28;1643;-86